Time;durP1;ratioP1;P1;durP2;ratioP2;P2;SDS_P1;SDS_P2;PMS_P1;PMS_P2;Temp;Humidity;BMP_temperature;BMP_pressure;BME280_temperature;BME280_humidity;BME280_pressure;Samples;Min_cycle;Max_cycle;Signal;HPM_P1;HPM_P2
2023/07/01 00:02:29;;;;;;;9.70;8.80;;;;;;;19.65;81.89;99678.96;104038;277;39514;-71
2023/07/01 00:05:03;;;;;;;11.70;9.40;;;;;;;19.65;82.19;99679.33;104068;277;38260;-71
2023/07/01 00:07:38;;;;;;;9.50;8.60;;;;;;;19.64;82.29;99676.55;104035;277;38248;-71
2023/07/01 00:10:12;;;;;;;10.20;9.20;;;;;;;19.62;82.22;99674.80;103997;277;38903;-72
2023/07/01 00:12:47;;;;;;;9.40;8.60;;;;;;;19.59;82.50;99678.88;104053;277;39432;-74
2023/07/01 00:15:21;;;;;;;10.60;9.40;;;;;;;19.56;82.57;99675.61;104019;277;38381;-72
2023/07/01 00:17:55;;;;;;;10.40;9.50;;;;;;;19.54;82.91;99676.44;104031;277;38233;-72
2023/07/01 00:20:31;;;;;;;10.40;9.30;;;;;;;19.56;83.07;99674.50;103987;277;39964;-71
2023/07/01 00:23:06;;;;;;;10.20;9.20;;;;;;;19.58;83.02;99672.42;104019;277;38475;-74
2023/07/01 00:25:40;;;;;;;10.10;8.50;;;;;;;19.60;82.97;99673.70;104048;277;38521;-72
2023/07/01 00:28:14;;;;;;;9.70;8.70;;;;;;;19.58;82.82;99674.33;103974;277;39971;-75
2023/07/01 00:30:48;;;;;;;10.50;9.60;;;;;;;19.57;82.94;99674.11;103996;277;38924;-73
2023/07/01 00:33:22;;;;;;;11.00;9.80;;;;;;;19.57;83.17;99676.58;103876;277;174466;-71
2023/07/01 00:35:57;;;;;;;10.80;9.80;;;;;;;19.59;83.39;99675.89;104034;277;38703;-72
2023/07/01 00:38:31;;;;;;;10.50;9.10;;;;;;;19.57;83.12;99672.98;104030;277;38240;-71
2023/07/01 00:41:05;;;;;;;9.60;8.70;;;;;;;19.55;83.23;99676.86;104090;277;38563;-75
2023/07/01 00:43:40;;;;;;;10.00;9.00;;;;;;;19.55;83.22;99676.42;104007;277;38320;-75
2023/07/01 00:46:16;;;;;;;9.70;8.80;;;;;;;19.54;83.47;99673.48;104042;277;40129;-74
2023/07/01 00:48:50;;;;;;;11.40;10.40;;;;;;;19.53;83.42;99677.09;104038;277;38487;-72
2023/07/01 00:51:24;;;;;;;9.60;8.80;;;;;;;19.51;83.57;99677.13;104039;277;38711;-73
2023/07/01 00:53:59;;;;;;;9.90;8.90;;;;;;;19.47;83.55;99684.03;104015;277;38525;-71
2023/07/01 00:56:34;;;;;;;9.50;8.60;;;;;;;19.44;83.63;99684.43;103852;277;38278;-72
2023/07/01 00:59:08;;;;;;;10.00;9.10;;;;;;;19.43;83.72;99680.41;104025;277;38593;-71
2023/07/01 01:01:46;;;;;;;9.70;8.90;;;;;;;19.44;83.77;99679.30;103926;277;38269;-72
2023/07/01 01:04:29;;;;;;;10.20;9.20;;;;;;;19.46;83.98;99672.35;104020;277;39345;-71
2023/07/01 01:07:07;;;;;;;10.60;9.60;;;;;;;19.49;84.03;99675.88;104060;277;38269;-71
2023/07/01 01:09:45;;;;;;;10.50;9.40;;;;;;;19.50;84.14;99672.56;104003;277;38268;-74
2023/07/01 01:12:23;;;;;;;10.00;9.00;;;;;;;19.51;84.19;99669.84;104061;277;38496;-73
2023/07/01 01:14:57;;;;;;;9.70;8.80;;;;;;;19.53;84.08;99672.66;104056;277;38225;-72
2023/07/01 01:17:31;;;;;;;10.70;9.70;;;;;;;19.53;84.11;99669.28;104008;269;38523;-73
2023/07/01 01:20:12;;;;;;;10.20;9.30;;;;;;;19.55;84.03;99665.97;104053;277;39636;-74
2023/07/01 01:22:50;;;;;;;11.60;10.70;;;;;;;19.54;84.07;99664.68;104047;277;38222;-72
2023/07/01 01:25:29;;;;;;;11.60;10.40;;;;;;;19.49;84.07;99662.57;104087;277;38773;-71
2023/07/01 01:28:04;;;;;;;11.40;10.30;;;;;;;19.47;84.12;99666.48;104052;277;39574;-73
2023/07/01 01:30:38;;;;;;;11.10;10.00;;;;;;;19.45;84.19;99665.26;104075;277;39645;-72
2023/07/01 01:33:12;;;;;;;10.70;9.70;;;;;;;19.42;84.15;99664.96;103973;277;38253;-73
2023/07/01 01:35:46;;;;;;;10.70;9.60;;;;;;;19.40;84.19;99665.12;104022;277;39633;-72
2023/07/01 01:38:24;;;;;;;12.30;10.70;;;;;;;19.42;84.42;99666.55;104019;277;38309;-73
2023/07/01 01:41:01;;;;;;;12.60;11.30;;;;;;;19.44;84.57;99662.80;104006;277;38961;-72
2023/07/01 01:43:42;;;;;;;12.00;10.90;;;;;;;19.43;84.67;99668.27;104022;277;38526;-73
2023/07/01 01:46:18;;;;;;;11.70;10.50;;;;;;;19.40;84.56;99660.85;104106;277;38421;-73
2023/07/01 01:48:52;;;;;;;12.20;10.70;;;;;;;19.44;84.62;99663.59;103999;277;38270;-71
2023/07/01 01:51:26;;;;;;;11.90;10.90;;;;;;;19.43;84.48;99660.29;104037;277;38737;-74
2023/07/01 01:54:00;;;;;;;12.50;11.20;;;;;;;19.40;84.55;99662.98;104001;277;38575;-73
2023/07/01 01:56:34;;;;;;;12.30;11.10;;;;;;;19.41;84.62;99663.61;104032;277;39942;-73
2023/07/01 01:59:08;;;;;;;14.20;11.20;;;;;;;19.40;84.72;99665.87;104007;277;38644;-73
2023/07/01 02:01:45;;;;;;;12.60;11.40;;;;;;;19.36;84.66;99669.56;104016;277;39403;-74
2023/07/01 02:04:19;;;;;;;12.30;11.10;;;;;;;19.34;84.92;99669.89;103905;277;38267;-73
2023/07/01 02:06:53;;;;;;;12.30;10.80;;;;;;;19.34;85.19;99667.93;103971;277;38774;-73
2023/07/01 02:09:28;;;;;;;12.00;10.80;;;;;;;19.34;85.35;99669.05;104003;277;39616;-73
2023/07/01 02:12:04;;;;;;;12.50;11.20;;;;;;;19.37;85.50;99670.40;103849;277;39673;-75
2023/07/01 02:14:38;;;;;;;11.90;10.80;;;;;;;19.37;85.50;99671.59;103880;278;39439;-74
2023/07/01 02:17:12;;;;;;;13.50;12.20;;;;;;;19.37;85.56;99669.27;104032;277;38805;-74
2023/07/01 02:19:46;;;;;;;13.40;11.80;;;;;;;19.36;85.73;99667.08;104001;277;38353;-74
2023/07/01 02:22:21;;;;;;;12.80;11.60;;;;;;;19.33;85.76;99669.43;104029;277;38480;-74
2023/07/01 02:24:55;;;;;;;12.80;11.70;;;;;;;19.32;85.82;99666.14;104031;277;39156;-72
2023/07/01 02:27:30;;;;;;;12.90;11.50;;;;;;;19.36;85.87;99665.65;104047;277;38424;-75
2023/07/01 02:30:06;;;;;;;13.30;12.00;;;;;;;19.40;86.08;99659.98;103958;277;39672;-75
2023/07/01 02:32:40;;;;;;;13.00;11.70;;;;;;;19.41;86.07;99663.64;104068;277;38673;-72
2023/07/01 02:35:15;;;;;;;14.80;13.10;;;;;;;19.42;86.09;99661.08;103950;277;39659;-73
2023/07/01 02:37:49;;;;;;;14.70;13.20;;;;;;;19.43;86.07;99658.56;103994;277;38222;-72
2023/07/01 02:40:23;;;;;;;14.10;12.70;;;;;;;19.42;85.97;99656.46;103825;278;39808;-72
2023/07/01 02:42:58;;;;;;;13.90;12.70;;;;;;;19.39;86.02;99653.92;103812;278;38274;-72
2023/07/01 02:45:34;;;;;;;13.70;12.30;;;;;;;19.37;86.09;99650.38;103830;266;38591;-72
2023/07/01 02:48:08;;;;;;;14.60;12.00;;;;;;;19.38;86.12;99649.26;104044;277;39486;-75
2023/07/01 02:50:42;;;;;;;13.10;12.00;;;;;;;19.39;86.25;99648.91;104003;277;40133;-74
2023/07/01 02:53:17;;;;;;;13.00;11.90;;;;;;;19.41;86.22;99650.23;103988;277;38549;-73
2023/07/01 02:55:52;;;;;;;14.20;12.80;;;;;;;19.43;86.33;99650.23;103994;277;38322;-73
2023/07/01 02:58:26;;;;;;;15.70;13.00;;;;;;;19.41;86.46;99647.14;103995;277;40089;-72
2023/07/01 03:01:00;;;;;;;13.60;12.40;;;;;;;19.43;86.41;99647.03;103801;278;38270;-72
2023/07/01 03:03:34;;;;;;;13.20;11.90;;;;;;;19.44;86.44;99642.67;103779;278;38584;-73
2023/07/01 03:06:10;;;;;;;13.10;11.80;;;;;;;19.45;86.47;99641.70;104029;277;40153;-75
2023/07/01 03:08:44;;;;;;;13.30;12.10;;;;;;;19.46;86.39;99636.33;103968;277;38379;-73
2023/07/01 03:11:18;;;;;;;12.80;11.50;;;;;;;19.47;86.55;99637.84;104053;277;38262;-74
2023/07/01 03:13:52;;;;;;;13.40;12.10;;;;;;;19.49;86.53;99637.98;103308;278;731653;-72
2023/07/01 03:16:26;;;;;;;14.00;12.00;;;;;;;19.50;86.40;99637.42;103880;277;174669;-74
2023/07/01 03:19:01;;;;;;;11.90;10.80;;;;;;;19.49;86.41;99635.88;103937;277;38479;-74
2023/07/01 03:21:36;;;;;;;13.00;11.70;;;;;;;19.52;86.53;99635.45;104025;277;38412;-74
2023/07/01 03:24:10;;;;;;;13.20;11.80;;;;;;;19.53;86.47;99634.09;104006;277;39390;-74
2023/07/01 03:26:45;;;;;;;14.10;12.60;;;;;;;19.53;86.57;99631.96;103981;277;38315;-74
2023/07/01 03:29:21;;;;;;;16.00;14.40;;;;;;;19.51;86.58;99635.01;103909;277;39043;-73
2023/07/01 03:31:54;;;;;;;13.60;12.40;;;;;;;19.48;86.78;99633.79;103915;277;38811;-72
2023/07/01 03:34:28;;;;;;;14.10;12.40;;;;;;;19.46;86.62;99633.49;103803;277;39677;-75
2023/07/01 03:37:03;;;;;;;13.80;12.40;;;;;;;19.45;86.52;99630.37;103892;277;38725;-73
2023/07/01 03:39:37;;;;;;;13.60;12.00;;;;;;;19.45;86.68;99631.23;103789;277;38541;-75
2023/07/01 03:42:11;;;;;;;12.60;11.50;;;;;;;19.47;86.90;99629.49;103873;277;39962;-74
2023/07/01 03:44:45;;;;;;;13.90;12.70;;;;;;;19.52;87.06;99630.32;103857;277;38268;-73
2023/07/01 03:47:20;;;;;;;14.00;12.90;;;;;;;19.55;87.11;99631.44;103828;277;39389;-73
2023/07/01 03:49:54;;;;;;;13.90;12.60;;;;;;;19.55;87.13;99634.40;103759;278;39556;-73
2023/07/01 03:52:28;;;;;;;13.90;12.40;;;;;;;19.57;86.96;99634.11;103793;278;38170;-72
2023/07/01 03:55:02;;;;;;;12.90;11.60;;;;;;;19.59;87.06;99635.58;103826;277;39509;-73
2023/07/01 03:57:37;;;;;;;12.90;11.70;;;;;;;19.62;87.23;99635.50;103869;277;38358;-74
2023/07/01 04:00:17;;;;;;;13.10;11.90;;;;;;;19.69;87.35;99633.11;103827;277;39398;-74
2023/07/01 04:02:53;;;;;;;14.10;12.80;;;;;;;19.74;87.28;99629.97;103882;277;38252;-73
2023/07/01 04:05:29;;;;;;;14.10;12.70;;;;;;;19.82;87.46;99630.18;103853;278;39379;-72
2023/07/01 04:08:03;;;;;;;14.40;12.90;;;;;;;19.89;87.40;99630.83;103822;277;39534;-74
2023/07/01 04:10:37;;;;;;;13.20;12.10;;;;;;;19.92;87.13;99639.02;103854;277;38358;-73
2023/07/01 04:13:11;;;;;;;13.60;12.40;;;;;;;19.96;86.92;99639.41;103825;278;38265;-73
2023/07/01 04:15:45;;;;;;;13.20;12.00;;;;;;;19.97;86.86;99641.23;103871;277;38344;-73
2023/07/01 04:18:20;;;;;;;14.50;12.90;;;;;;;20.00;87.07;99639.17;103835;277;38384;-74
2023/07/01 04:20:55;;;;;;;15.10;12.80;;;;;;;20.02;86.92;99641.83;103818;277;38351;-74
2023/07/01 04:23:29;;;;;;;13.80;12.40;;;;;;;20.04;86.72;99643.60;103814;277;40246;-74
2023/07/01 04:26:03;;;;;;;14.10;12.80;;;;;;;20.05;86.46;99640.14;103870;277;38486;-73
2023/07/01 04:28:37;;;;;;;15.40;13.60;;;;;;;20.08;86.60;99639.67;103846;277;39935;-75
2023/07/01 04:31:11;;;;;;;13.90;12.60;;;;;;;20.07;86.05;99639.45;103811;277;38246;-74
2023/07/01 04:33:46;;;;;;;14.60;13.10;;;;;;;20.06;86.18;99635.63;103835;277;38430;-73
2023/07/01 04:36:20;;;;;;;13.20;11.80;;;;;;;20.04;85.83;99638.31;103891;277;39673;-74
2023/07/01 04:38:54;;;;;;;13.70;11.70;;;;;;;20.02;85.90;99640.93;103852;277;38255;-73
2023/07/01 04:41:30;;;;;;;13.80;12.40;;;;;;;20.01;85.62;99639.49;103881;277;38258;-73
2023/07/01 04:44:05;;;;;;;13.30;12.00;;;;;;;19.98;85.81;99643.09;103863;277;38315;-74
2023/07/01 04:46:39;;;;;;;12.60;11.30;;;;;;;19.97;85.90;99642.52;103878;277;38214;-72
2023/07/01 04:49:14;;;;;;;12.50;11.20;;;;;;;19.97;85.82;99639.86;103817;277;38440;-72
2023/07/01 04:51:48;;;;;;;13.00;11.40;;;;;;;19.97;85.41;99640.41;103867;277;38489;-75
2023/07/01 04:54:22;;;;;;;12.80;11.50;;;;;;;19.96;85.34;99636.92;103848;277;38369;-74
2023/07/01 04:56:56;;;;;;;14.50;12.50;;;;;;;19.95;85.13;99637.88;103904;277;38240;-72
2023/07/01 04:59:30;;;;;;;13.70;12.30;;;;;;;19.91;84.83;99640.23;103836;277;38471;-73
2023/07/01 05:02:04;;;;;;;13.50;11.70;;;;;;;19.86;84.84;99639.23;103921;266;39243;-74
2023/07/01 05:04:39;;;;;;;14.00;11.90;;;;;;;19.82;84.87;99645.02;103817;277;39855;-75
2023/07/01 05:07:13;;;;;;;13.00;11.80;;;;;;;19.82;85.01;99650.72;103874;277;39664;-73
2023/07/01 05:09:47;;;;;;;14.10;12.40;;;;;;;19.81;85.00;99643.55;103838;277;39693;-74
2023/07/01 05:12:21;;;;;;;16.40;12.40;;;;;;;19.80;84.96;99636.20;103863;277;38262;-75
2023/07/01 05:14:56;;;;;;;14.10;12.60;;;;;;;19.81;85.43;99637.36;103819;277;38691;-76
2023/07/01 05:17:30;;;;;;;13.50;12.10;;;;;;;19.84;85.43;99639.02;103930;278;39464;-74
2023/07/01 05:20:08;;;;;;;18.50;12.10;;;;;;;19.87;85.71;99641.80;103875;277;38481;-73
2023/07/01 05:22:43;;;;;;;13.60;12.30;;;;;;;19.90;85.73;99645.08;103883;277;38272;-72
2023/07/01 05:25:17;;;;;;;15.40;12.00;;;;;;;19.91;85.60;99640.38;103902;277;38611;-73
2023/07/01 05:27:51;;;;;;;13.70;12.40;;;;;;;19.93;85.66;99645.71;103772;279;38262;-75
2023/07/01 05:30:28;;;;;;;13.80;12.40;;;;;;;19.94;85.59;99651.06;103748;279;38311;-73
2023/07/01 05:33:02;;;;;;;14.30;11.40;;;;;;;19.98;85.85;99649.48;103814;279;39388;-74
2023/07/01 05:35:40;;;;;;;12.10;11.00;;;;;;;20.05;86.27;99648.66;103752;279;38443;-73
2023/07/01 05:38:16;;;;;;;13.10;11.30;;;;;;;20.15;85.88;99650.97;103736;279;39592;-72
2023/07/01 05:40:52;;;;;;;13.20;11.40;;;;;;;20.24;85.99;99652.98;103795;279;38253;-73
2023/07/01 05:46:55;;;;;;;12.80;10.90;;;;;;;20.39;85.24;99651.64;103741;279;38288;-74
2023/07/01 05:49:40;;;;;;;13.30;11.90;;;;;;;20.46;85.22;99657.56;103703;279;38321;-73
2023/07/01 05:52:21;;;;;;;13.80;11.00;;;;;;;20.51;84.74;99657.34;103816;279;38786;-72
2023/07/01 05:55:12;;;;;;;12.70;11.50;;;;;;;20.56;84.81;99658.60;103770;279;38446;-73
2023/07/01 05:57:50;;;;;;;12.90;11.50;;;;;;;20.64;84.75;99661.50;103792;279;38250;-72
2023/07/01 06:00:41;;;;;;;12.20;11.00;;;;;;;20.66;84.26;99664.33;103678;279;174416;-72
2023/07/01 06:03:30;;;;;;;12.50;11.20;;;;;;;20.63;83.90;99667.02;103546;279;39654;-73
2023/07/01 06:06:12;;;;;;;12.30;11.20;;;;;;;20.61;83.83;99667.22;103777;279;39445;-72
2023/07/01 06:08:58;;;;;;;13.10;11.50;;;;;;;20.61;83.45;99664.89;103677;279;38232;-72
2023/07/01 06:11:43;;;;;;;12.80;11.20;;;;;;;20.61;83.10;99663.52;103716;279;38231;-73
2023/07/01 06:14:27;;;;;;;13.70;11.90;;;;;;;20.64;83.53;99665.15;103750;279;38283;-73
2023/07/01 06:17:12;;;;;;;14.70;11.60;;;;;;;20.72;83.45;99668.49;103781;279;38230;-75
2023/07/01 06:19:58;;;;;;;16.50;11.80;;;;;;;20.79;83.42;99672.09;103612;279;39399;-73
2023/07/01 06:22:49;;;;;;;12.60;11.30;;;;;;;20.86;83.35;99664.33;103780;279;38268;-75
2023/07/01 06:25:30;;;;;;;12.30;11.10;;;;;;;20.93;82.71;99663.73;103657;279;38288;-73
2023/07/01 06:28:08;;;;;;;12.70;11.40;;;;;;;21.01;82.80;99670.64;103789;277;38264;-73
2023/07/01 06:31:00;;;;;;;13.00;11.50;;;;;;;21.10;82.68;99673.68;103894;277;38282;-73
2023/07/01 06:34:01;;;;;;;14.30;11.30;;;;;;;21.19;82.81;99671.84;103618;277;39507;-74
2023/07/01 06:36:40;;;;;;;12.30;10.70;;;;;;;21.30;82.13;99667.25;103760;279;38244;-74
2023/07/01 06:39:17;;;;;;;12.00;10.60;;;;;;;21.39;82.05;99664.09;103829;277;38236;-72
2023/07/01 06:41:51;;;;;;;13.40;11.00;;;;;;;21.44;81.55;99665.06;103879;277;39407;-75
2023/07/01 06:44:25;;;;;;;13.00;10.80;;;;;;;21.45;80.97;99662.67;103902;266;38420;-73
2023/07/01 06:46:59;;;;;;;14.40;11.70;;;;;;;21.44;80.56;99658.44;103956;277;38251;-73
2023/07/01 06:49:34;;;;;;;13.80;11.80;;;;;;;21.45;80.37;99662.98;103941;277;38234;-71
2023/07/01 06:52:10;;;;;;;13.30;10.70;;;;;;;21.52;80.74;99660.90;104002;277;39426;-73
2023/07/01 06:54:44;;;;;;;11.80;10.60;;;;;;;21.60;79.94;99667.21;103825;277;174704;-73
2023/07/01 06:57:19;;;;;;;11.50;10.30;;;;;;;21.68;80.09;99672.18;103809;277;174715;-73
2023/07/01 06:59:55;;;;;;;11.00;9.90;;;;;;;21.71;79.80;99673.48;103674;278;174687;-73
2023/07/01 07:02:32;;;;;;;13.00;10.60;;;;;;;21.70;78.36;99672.70;103958;277;38249;-74
2023/07/01 07:05:08;;;;;;;13.10;10.70;;;;;;;21.68;78.58;99668.64;103763;278;39707;-73
2023/07/01 07:07:42;;;;;;;12.80;10.40;;;;;;;21.67;78.72;99668.73;103937;277;38281;-72
2023/07/01 07:10:17;;;;;;;11.80;9.80;;;;;;;21.70;78.44;99667.40;103925;277;38231;-72
2023/07/01 07:12:51;;;;;;;10.60;9.50;;;;;;;21.79;78.87;99669.48;103933;277;38450;-74
2023/07/01 07:15:30;;;;;;;11.10;9.30;;;;;;;21.94;78.50;99674.13;103925;277;38498;-75
2023/07/01 07:18:13;;;;;;;12.20;10.00;;;;;;;22.07;77.95;99675.64;103884;267;39433;-73
2023/07/01 07:20:54;;;;;;;10.50;8.80;;;;;;;22.19;77.46;99678.46;103930;277;38921;-73
2023/07/01 07:23:43;;;;;;;11.00;9.50;;;;;;;22.44;77.80;99679.52;103808;277;38489;-73
2023/07/01 07:29:18;;;;;;;10.00;8.60;;;;;;;23.26;76.20;99682.21;104359;278;38281;-78
2023/07/01 07:32:11;;;;;;;9.80;8.80;;;;;;;23.54;74.37;99675.95;104075;277;39241;-78
2023/07/01 07:34:51;;;;;;;12.60;10.50;;;;;;;23.61;72.95;99677.54;104143;277;38284;-78
2023/07/01 07:37:30;;;;;;;13.10;10.40;;;;;;;23.61;72.20;99679.08;103974;277;38704;-77
2023/07/01 07:40:17;;;;;;;12.40;10.30;;;;;;;23.52;70.69;99681.31;103717;277;174216;-75
2023/07/01 07:43:01;;;;;;;11.10;10.00;;;;;;;23.43;70.44;99681.83;103897;277;38284;-77
2023/07/01 07:45:41;;;;;;;11.80;10.60;;;;;;;23.33;70.56;99678.46;103948;277;38272;-76
2023/07/01 07:48:26;;;;;;;11.10;9.90;;;;;;;23.24;70.35;99681.33;103872;277;38426;-75
2023/07/01 07:51:15;;;;;;;12.10;9.90;;;;;;;23.15;70.34;99680.30;103997;277;38277;-76
2023/07/01 07:53:55;;;;;;;15.80;10.40;;;;;;;23.10;70.27;99677.80;103727;280;38797;-76
2023/07/01 07:56:41;;;;;;;12.10;10.30;;;;;;;23.09;70.41;99676.09;104014;277;38395;-77
2023/07/01 07:59:31;;;;;;;13.20;9.70;;;;;;;23.18;71.26;99678.33;103972;278;38265;-77
2023/07/01 08:02:16;;;;;;;12.80;10.70;;;;;;;23.31;70.73;99674.38;103906;277;38256;-76
2023/07/01 08:04:53;;;;;;;10.80;9.70;;;;;;;23.24;69.40;99675.79;103631;277;174576;-76
2023/07/01 08:07:47;;;;;;;11.20;10.00;;;;;;;23.10;68.87;99675.23;103732;280;38687;-76
2023/07/01 08:10:32;;;;;;;10.80;9.50;;;;;;;22.90;68.47;99673.92;103790;274;38269;-75
2023/07/01 08:13:14;;;;;;;13.70;10.90;;;;;;;22.74;69.22;99670.20;103871;277;38410;-74
2023/07/01 08:16:26;;;;;;;11.90;10.30;;;;;;;22.79;69.56;99668.74;103817;277;38538;-76
2023/07/01 08:19:19;;;;;;;12.40;10.80;;;;;;;23.04;70.14;99667.91;103836;278;38455;-77
2023/07/01 08:22:13;;;;;;;13.10;10.70;;;;;;;23.70;71.08;99665.20;103968;277;38349;-79
2023/07/01 08:25:19;;;;;;;12.30;10.90;;;;;;;24.26;68.73;99664.79;103923;277;39765;-77
2023/07/01 08:28:40;;;;;;;11.90;10.70;;;;;;;24.81;68.06;99665.48;103978;277;39533;-76
2023/07/01 08:31:25;;;;;;;11.80;10.60;;;;;;;25.49;67.16;99661.25;103946;277;38363;-76
2023/07/01 08:34:06;;;;;;;13.00;10.90;;;;;;;26.05;63.68;99661.04;103845;278;38693;-76
2023/07/01 08:36:52;;;;;;;12.70;11.40;;;;;;;26.07;61.89;99660.92;103932;277;41065;-77
2023/07/01 08:39:51;;;;;;;11.80;10.60;;;;;;;25.83;60.32;99661.77;103358;277;886680;-78
2023/07/01 08:42:50;;;;;;;12.80;10.60;;;;;;;25.60;60.19;99656.83;103935;278;38265;-74
2023/07/01 08:45:46;;;;;;;11.80;10.40;;;;;;;25.45;60.82;99657.75;103841;277;38236;-74
2023/07/01 08:48:39;;;;;;;12.60;10.40;;;;;;;25.27;60.07;99661.73;103876;277;38417;-77
2023/07/01 08:51:36;;;;;;;11.00;9.90;;;;;;;25.00;59.98;99659.13;103889;277;38581;-77
2023/07/01 08:54:26;;;;;;;10.30;9.20;;;;;;;24.76;60.74;99660.56;103905;277;38268;-77
2023/07/01 08:57:24;;;;;;;11.90;10.10;;;;;;;24.44;60.11;99655.08;103782;277;174077;-76
2023/07/01 09:00:04;;;;;;;12.10;10.20;;;;;;;24.23;61.61;99649.70;103980;277;38763;-74
2023/07/01 09:02:46;;;;;;;15.20;10.70;;;;;;;24.20;62.29;99651.88;103971;278;39609;-78
2023/07/01 09:05:40;;;;;;;12.90;10.80;;;;;;;24.22;62.60;99649.27;103856;278;38747;-77
2023/07/01 09:08:46;;;;;;;13.10;11.10;;;;;;;24.26;63.40;99650.76;104120;277;38325;-79
2023/07/01 09:11:28;;;;;;;13.20;10.20;;;;;;;24.27;63.03;99653.18;104088;277;38221;-75
2023/07/01 09:14:08;;;;;;;11.50;10.20;;;;;;;24.23;62.92;99649.34;103926;277;39458;-75
2023/07/01 09:16:52;;;;;;;11.30;10.20;;;;;;;24.20;62.69;99655.45;103873;278;38282;-75
2023/07/01 09:19:36;;;;;;;12.70;10.80;;;;;;;24.17;63.10;99657.98;103934;277;38260;-75
2023/07/01 09:22:19;;;;;;;11.30;10.10;;;;;;;24.12;62.76;99657.73;103912;277;38259;-76
2023/07/01 09:25:15;;;;;;;12.70;10.60;;;;;;;24.02;62.88;99661.70;103972;277;38243;-76
2023/07/01 09:28:01;;;;;;;13.60;11.50;;;;;;;23.87;63.04;99658.84;104000;277;38259;-75
2023/07/01 09:30:37;;;;;;;15.30;11.00;;;;;;;23.72;63.11;99654.53;103948;277;38675;-78
2023/07/01 09:33:16;;;;;;;14.40;10.70;;;;;;;23.59;63.85;99658.63;103991;277;38227;-77
2023/07/01 09:35:57;;;;;;;11.80;10.30;;;;;;;23.61;64.02;99656.13;103925;277;38627;-79
2023/07/01 09:38:31;;;;;;;11.90;10.30;;;;;;;23.70;63.85;99654.70;104074;277;38464;-79
2023/07/01 09:41:20;;;;;;;12.40;10.50;;;;;;;23.85;64.00;99651.16;104061;277;39969;-76
2023/07/01 09:47:55;;;;;;;14.00;10.70;;;;;;;24.21;63.18;99644.18;103706;280;39155;-76
2023/07/01 09:50:33;;;;;;;11.30;10.20;;;;;;;24.37;62.76;99643.03;103720;280;38898;-77
2023/07/01 09:53:17;;;;;;;12.10;10.80;;;;;;;24.53;62.73;99640.76;103826;280;39452;-74
2023/07/01 09:55:51;;;;;;;10.90;9.80;;;;;;;24.65;62.01;99640.88;103667;280;39952;-75
2023/07/01 09:58:25;;;;;;;11.30;10.10;;;;;;;24.77;61.49;99640.07;103737;269;39430;-79
2023/07/01 10:01:02;;;;;;;10.80;9.70;;;;;;;24.88;60.95;99637.83;103758;280;39185;-76
2023/07/01 10:03:37;;;;;;;12.10;10.20;;;;;;;24.95;60.33;99636.82;103605;280;38526;-79
2023/07/01 10:06:12;;;;;;;12.30;10.30;;;;;;;25.00;59.93;99636.67;103778;280;39478;-73
2023/07/01 10:08:49;;;;;;;11.90;10.60;;;;;;;25.07;59.98;99632.94;103571;280;38719;-75
2023/07/01 10:11:23;;;;;;;11.30;10.10;;;;;;;25.12;59.45;99636.10;103675;279;38269;-75
2023/07/01 10:13:58;;;;;;;10.80;9.80;;;;;;;25.17;59.36;99635.02;103784;280;38235;-79
2023/07/01 10:16:32;;;;;;;11.20;10.00;;;;;;;25.22;59.24;99634.09;103721;280;38218;-76
2023/07/01 10:19:10;;;;;;;11.50;10.30;;;;;;;25.33;59.34;99634.14;103616;280;38428;-74
2023/07/01 10:21:44;;;;;;;12.10;10.30;;;;;;;25.47;59.32;99630.39;103819;280;38224;-80
2023/07/01 10:24:18;;;;;;;10.90;9.60;;;;;;;25.55;58.74;99627.34;103091;280;891881;-75
2023/07/01 10:26:52;;;;;;;12.10;10.20;;;;;;;25.54;58.09;99627.48;103683;280;39433;-75
2023/07/01 10:29:57;;;;;;;11.30;10.20;;;;;;;25.44;57.58;99624.66;103668;280;39557;-74
2023/07/01 10:32:35;;;;;;;11.10;9.90;;;;;;;25.22;57.23;99627.88;103621;281;38466;-77
2023/07/01 10:35:17;;;;;;;12.20;10.40;;;;;;;25.04;57.38;99627.52;103946;280;38227;-79
2023/07/01 10:38:25;;;;;;;10.60;9.50;;;;;;;24.92;57.66;99623.60;103734;280;39436;-77
2023/07/01 10:40:59;;;;;;;;;;;;;;;24.97;58.07;99614.50;103597;280;174561;-78
2023/07/01 10:43:37;;;;;;;10.90;9.10;;;;;;;25.03;57.96;99610.81;103669;269;38529;-77
2023/07/01 10:46:23;;;;;;;10.20;9.20;;;;;;;25.18;57.55;99610.78;103693;280;38403;-76
2023/07/01 10:49:11;;;;;;;9.40;8.50;;;;;;;25.47;57.79;99597.73;103632;280;38285;-76
2023/07/01 10:52:08;;;;;;;9.20;8.30;;;;;;;25.92;57.24;99595.45;103695;280;40956;-81
2023/07/01 10:54:43;;;;;;;9.40;8.50;;;;;;;26.24;55.67;99591.01;103677;280;38553;-78
2023/07/01 10:57:18;;;;;;;9.30;8.40;;;;;;;26.38;55.10;99589.77;103591;280;40449;-74
2023/07/01 10:59:52;;;;;;;8.60;7.60;;;;;;;26.56;54.51;99581.10;103584;280;38534;-78
2023/07/01 11:02:41;;;;;;;8.70;7.50;;;;;;;26.68;53.43;99580.15;103626;280;174522;-81
2023/07/01 11:05:15;;;;;;;8.60;7.40;;;;;;;26.78;53.03;99574.61;103597;280;39402;-77
2023/07/01 11:07:50;;;;;;;7.40;6.70;;;;;;;26.87;52.64;99560.25;103578;281;39432;-77
2023/07/01 11:10:24;;;;;;;7.90;7.00;;;;;;;26.94;52.04;99554.57;103651;280;39450;-76
2023/07/01 11:13:06;;;;;;;8.20;6.60;;;;;;;26.97;50.96;99546.98;103120;280;738496;-77
2023/07/01 11:15:40;;;;;;;8.80;7.90;;;;;;;26.97;50.89;99541.33;103641;280;38262;-78
2023/07/01 11:18:14;;;;;;;8.00;7.30;;;;;;;27.00;50.60;99537.73;103653;280;38312;-77
2023/07/01 11:20:52;;;;;;;8.60;7.20;;;;;;;27.07;50.55;99539.55;103570;280;39603;-77
2023/07/01 11:23:27;;;;;;;8.10;7.30;;;;;;;27.14;50.54;99549.05;103663;280;38326;-75
2023/07/01 11:26:03;;;;;;;8.00;7.20;;;;;;;27.22;49.96;99550.27;103702;280;38236;-78
2023/07/01 11:28:38;;;;;;;8.10;7.00;;;;;;;27.25;49.60;99547.38;103653;280;39890;-74
2023/07/01 11:31:20;;;;;;;7.20;6.50;;;;;;;27.29;49.43;99542.84;103626;280;39670;-75
2023/07/01 11:33:56;;;;;;;7.90;7.10;;;;;;;27.35;49.27;99547.27;103570;280;38252;-76
2023/07/01 11:36:43;;;;;;;8.80;7.90;;;;;;;27.30;48.64;99545.23;103693;280;39686;-79
2023/07/01 11:39:19;;;;;;;8.10;7.30;;;;;;;27.30;48.77;99547.37;103796;277;38239;-77
2023/07/01 11:41:54;;;;;;;9.60;6.90;;;;;;;27.41;49.24;99543.70;103879;278;38493;-76
2023/07/01 11:44:32;;;;;;;10.10;9.00;;;;;;;27.56;49.31;99540.38;103905;277;39588;-74
2023/07/01 11:47:13;;;;;;;10.10;9.10;;;;;;;27.62;49.04;99543.13;103943;277;38547;-73
2023/07/01 11:49:48;;;;;;;10.80;9.70;;;;;;;27.67;48.27;99540.66;103921;277;39473;-71
2023/07/01 11:52:29;;;;;;;33.50;26.80;;;;;;;27.63;48.36;99539.78;103857;266;39826;-73
2023/07/01 11:55:08;;;;;;;71.70;47.50;;;;;;;27.66;48.62;99535.04;103807;277;38276;-73
2023/07/01 11:57:43;;;;;;;17.70;14.30;;;;;;;27.73;48.77;99534.23;103905;277;39977;-73
2023/07/01 12:00:32;;;;;;;10.80;9.70;;;;;;;27.76;48.69;99530.84;103889;277;39318;-75
2023/07/01 12:03:10;;;;;;;10.40;7.90;;;;;;;27.78;48.29;99529.73;103928;277;38227;-72
2023/07/01 12:05:46;;;;;;;23.10;18.60;;;;;;;27.66;48.06;99530.98;103926;277;38293;-72
2023/07/01 12:08:22;;;;;;;11.70;9.80;;;;;;;27.47;48.14;99531.34;103821;277;39386;-76
2023/07/01 12:10:57;;;;;;;49.80;41.30;;;;;;;27.24;47.90;99531.58;103920;277;38298;-76
2023/07/01 12:13:38;;;;;;;38.50;27.90;;;;;;;27.05;48.22;99534.80;103825;277;38848;-76
2023/07/01 12:16:16;;;;;;;12.60;11.30;;;;;;;26.88;48.87;99533.99;103910;277;39875;-75
2023/07/01 12:18:49;;;;;;;;;;;;;;;26.76;49.36;99535.77;103863;277;38920;-72
2023/07/01 12:21:27;;;;;;;10.30;9.40;;;;;;;26.70;49.60;99537.50;103818;278;40284;-74
2023/07/01 12:24:02;;;;;;;9.30;8.40;;;;;;;26.68;49.55;99531.81;103858;277;38301;-74
2023/07/01 12:26:37;;;;;;;9.90;8.90;;;;;;;26.63;49.50;99531.53;103856;277;38382;-72